Terminal Aerodrome Forecast
Issued by NWS

Home | Current Version | Previous Version | Text Only | Print | Product List | Glossary On
Versions: 1 2 3 4 5 6 7 8 9 10 11 12 13 14 15 16 17 18
716
FTUS42 KMLB 091145
TAFFPR
TAF
KFPR 091145Z 0912/1012 36008KT P6SM VCSH FEW070 OVC100
     FM091500 01012G18KT P6SM VCSH BKN060 BKN120
     FM100300 02011KT P6SM SCT050 BKN100=

USA.gov is the U.S. government's official web portal to all federal, state and local government web resources and services.